This is the latest recevied weather packets stored in our database for station/object DL1GHN-6. If no packets are shown the sender has not sent any weather packets the latest 10 day(s).
| Time | Temp. | Humidity | Pressure | Rain* | Wind** | Luminosity | Snow |
|---|---|---|---|---|---|---|---|
| 1777997719 | 15° C | 86% | 1007.3 hPa | 5.59 mm | - | 21 W/m² | - |
| 1777997417 | 15° C | 86% | 1007.4 hPa | 5.59 mm | - | 21 W/m² | - |
| 1777997118 | 15.56° C | 85% | 1007.4 hPa | 5.59 mm | - | 18 W/m² | - |
| 1777996819 | 15.56° C | 84% | 1007.4 hPa | 5.33 mm | - | 14 W/m² | - |
| 1777996518 | 15.56° C | 83% | 1007.3 hPa | 5.33 mm | - | 11 W/m² | - |
| 1777996218 | 16.11° C | 81% | 1007.2 hPa | 5.08 mm | - | 9 W/m² | - |
| 1777995918 | 16.67° C | 81% | 1007.1 hPa | 5.08 mm | - | 7 W/m² | - |
| 1777995618 | 17.22° C | 80% | 1007.5 hPa | 3.3 mm | - | 5 W/m² | - |
| 1777995319 | 17.78° C | 76% | 1007.1 hPa | 1.52 mm | - | 12 W/m² | - |
| 1777995018 | 18.33° C | 76% | 1007 hPa | 0.25 mm | - | 21 W/m² | - |
| 1777994717 | 18.33° C | 73% | 1007.1 hPa | 0 mm | - | 30 W/m² | - |
| 1777994418 | 18.33° C | 72% | 1007 hPa | 0 mm | - | 42 W/m² | - |
| 1777994118 | 18.89° C | 71% | 1007 hPa | 0 mm | - | 72 W/m² | - |
| 1777993817 | 18.89° C | 73% | 1007 hPa | 0 mm | - | 172 W/m² | - |
| 1777993517 | 18.89° C | 72% | 1007 hPa | 0 mm | - | 207 W/m² | - |
| 1777993218 | 18.89° C | 74% | 1006.9 hPa | 0 mm | - | 413 W/m² | - |
| 1777992918 | 18.89° C | 74% | 1006.9 hPa | 0 mm | - | 274 W/m² | - |
| 1777992618 | 18.89° C | 75% | 1006.9 hPa | 0 mm | - | 209 W/m² | - |
| 1777992318 | 18.33° C | 75% | 1007 hPa | 0 mm | - | 241 W/m² | - |
| 1777992017 | 18.33° C | 75% | 1007 hPa | 0 mm | - | 197 W/m² | - |
| 1777991719 | 18.89° C | 75% | 1007 hPa | 0 mm | - | 197 W/m² | - |
| 1777991418 | 18.89° C | 74% | 1007 hPa | 0 mm | - | 223 W/m² | - |
| 1777991118 | 18.89° C | 74% | 1007.1 hPa | 0 mm | - | 209 W/m² | - |
| 1777990818 | 18.89° C | 74% | 1007.2 hPa | 0 mm | - | 320 W/m² | - |
| 1777990517 | 18.89° C | 72% | 1007.2 hPa | 0 mm | - | 381 W/m² | - |
* Rain latest hour (hover to see other rain measurements)
** Current wind speed in m/s (hover to see current wind gust speed)